Finley, Kentucky
Current Conditions -  °F | °C
As of 9:30 AM on Tuesday 27 Jan 2015 (Local Time) from K6I2 Reporting Station
Haze Haze  
Wind Chill: 30°   Ceiling: 600
Heat Index: 30°   Visibility: 5mi
Dew Point: 27°   Wind: 0mph
Humidity: 86%   Direction: NA
Pressure: 30.01"   Gusts: NA
Location:  37.3962°N, 85.3866°W
Report Text: K6I2 271430Z AUTO 00000KT 5SM BR OVC006 M01/M03 A3001 RMK AO2
Loading
Personal Weather Stations






























Interactive Weather Map New forecast layout! Learn more

10-Day Weather Forecast

Advertisements
Track Severe Weather on mobile